Time;durP1;ratioP1;P1;durP2;ratioP2;P2;SDS_P1;SDS_P2;PMS_P1;PMS_P2;Temp;Humidity;BMP_temperature;BMP_pressure;BME280_temperature;BME280_humidity;BME280_pressure;Samples;Min_cycle;Max_cycle;Signal;HPM_P1;HPM_P2
2022/04/23 00:01:10;;;;;;;22.77;17.07;;;9.50;99.90;;;;;;5001273;28;20225;-74
2022/04/23 00:03:59;;;;;;;22.90;16.02;;;9.40;99.90;;;;;;4981830;28;20726;-75
2022/04/23 00:06:48;;;;;;;22.80;16.53;;;9.40;99.90;;;;;;4987636;28;20225;-74
2022/04/23 00:09:36;;;;;;;22.83;16.67;;;9.40;99.90;;;;;;5001660;28;20225;-75
2022/04/23 00:12:25;;;;;;;23.67;17.73;;;9.30;99.90;;;;;;5001271;28;20242;-75
2022/04/23 00:15:15;;;;;;;25.50;16.73;;;9.30;99.90;;;;;;4997868;28;20251;-75
2022/04/23 00:18:04;;;;;;;23.57;16.57;;;9.30;99.90;;;;;;5001915;28;20225;-75
2022/04/23 00:20:52;;;;;;;22.80;16.10;;;9.30;99.90;;;;;;5001733;28;20363;-75
2022/04/23 00:23:41;;;;;;;21.70;17.10;;;9.30;99.90;;;;;;5001526;28;20215;-75
2022/04/23 00:26:30;;;;;;;21.70;16.20;;;9.30;99.90;;;;;;5001404;28;21070;-74
2022/04/23 00:29:18;;;;;;;24.65;16.70;;;9.30;99.90;;;;;;4999154;28;20684;-75
2022/04/23 00:32:09;;;;;;;19.37;16.00;;;9.20;99.90;;;;;;4984358;28;20742;-74
2022/04/23 00:34:58;;;;;;;22.80;16.23;;;9.10;99.90;;;;;;5004361;28;20241;-74
2022/04/23 00:37:47;;;;;;;20.73;15.03;;;9.20;99.90;;;;;;5002333;28;20225;-75
2022/04/23 00:40:35;;;;;;;21.53;16.37;;;9.30;99.90;;;;;;5001352;28;20237;-75
2022/04/23 00:43:28;;;;;;;23.70;16.60;;;9.20;99.90;;;;;;4984324;28;20225;-75
2022/04/23 00:46:17;;;;;;;23.47;16.63;;;9.20;99.90;;;;;;4998987;28;20261;-75
2022/04/23 00:49:07;;;;;;;22.47;16.13;;;9.30;99.90;;;;;;5003491;28;20785;-75
2022/04/23 00:51:55;;;;;;;23.80;16.50;;;9.30;99.90;;;;;;4985783;28;20282;-74
2022/04/23 00:54:44;;;;;;;21.80;16.47;;;9.30;99.90;;;;;;5001832;28;20272;-74
2022/04/23 00:57:34;;;;;;;22.80;16.57;;;9.30;99.90;;;;;;5002445;28;20224;-75
2022/04/23 01:00:22;;;;;;;24.38;16.15;;;9.30;99.90;;;;;;4998557;28;20260;-75
2022/04/23 01:03:12;;;;;;;22.90;15.67;;;9.30;99.90;;;;;;4999843;28;20248;-74
2022/04/23 01:06:02;;;;;;;22.23;16.33;;;9.40;99.90;;;;;;5000207;28;20738;-75
2022/04/23 01:08:51;;;;;;;18.70;14.60;;;9.40;99.90;;;;;;5000412;28;20230;-76
2022/04/23 01:11:40;;;;;;;20.83;15.23;;;9.30;99.90;;;;;;5001122;28;20315;-74
2022/04/23 01:14:29;;;;;;;20.10;14.80;;;9.40;99.90;;;;;;4997632;28;20237;-74
2022/04/23 01:17:18;;;;;;;20.67;16.00;;;9.50;99.90;;;;;;5001186;28;20620;-74
2022/04/23 01:20:10;;;;;;;19.07;15.23;;;9.50;99.90;;;;;;5001552;28;20225;-74
2022/04/23 01:22:59;;;;;;;23.00;15.37;;;9.40;99.90;;;;;;5002549;28;20231;-75
2022/04/23 01:25:52;;;;;;;19.20;14.45;;;9.40;99.90;;;;;;5002600;28;20272;-74
2022/04/23 01:28:42;;;;;;;17.60;14.38;;;9.40;99.90;;;;;;4998456;28;20225;-76
2022/04/23 01:31:31;;;;;;;19.37;15.07;;;9.40;99.90;;;;;;4999658;28;20873;-73
2022/04/23 01:34:20;;;;;;;20.00;15.37;;;9.40;99.90;;;;;;4985157;28;20828;-74
2022/04/23 01:37:10;;;;;;;21.27;14.70;;;9.40;99.90;;;;;;5001162;28;20233;-73
2022/04/23 01:39:59;;;;;;;19.50;14.70;;;9.40;99.90;;;;;;4986683;28;20225;-74
2022/04/23 01:42:47;;;;;;;19.70;15.27;;;9.30;99.90;;;;;;4998795;28;20228;-75
2022/04/23 01:45:36;;;;;;;20.17;14.90;;;9.20;99.90;;;;;;5000740;28;20227;-73
2022/04/23 01:48:25;;;;;;;18.37;14.97;;;9.30;99.90;;;;;;4998482;28;20727;-74
2022/04/23 01:51:14;;;;;;;20.73;14.50;;;9.40;99.90;;;;;;4997441;28;20236;-74
2022/04/23 01:54:04;;;;;;;19.93;14.97;;;9.20;99.90;;;;;;4999463;28;20841;-74
2022/04/23 01:56:52;;;;;;;18.83;15.03;;;9.30;99.90;;;;;;4998963;28;20237;-74
2022/04/23 01:59:41;;;;;;;24.73;15.87;;;9.30;99.90;;;;;;4985145;28;20876;-74
2022/04/23 02:02:29;;;;;;;20.47;15.80;;;9.10;99.90;;;;;;4999722;28;20230;-74
2022/04/23 02:05:18;;;;;;;19.43;14.40;;;9.30;99.90;;;;;;4997672;28;20228;-74
2022/04/23 02:08:09;;;;;;;20.47;15.63;;;9.30;99.90;;;;;;4986208;28;20225;-73
2022/04/23 02:10:59;;;;;;;21.00;15.50;;;9.10;99.90;;;;;;5000896;28;20237;-74
2022/04/23 02:13:47;;;;;;;19.73;15.47;;;9.20;99.90;;;;;;4998900;28;20218;-74
2022/04/23 02:16:36;;;;;;;20.77;15.77;;;9.30;99.90;;;;;;5001934;28;20718;-74
2022/04/23 02:19:24;;;;;;;20.90;15.00;;;9.30;99.90;;;;;;4995353;28;20218;-73
2022/04/23 02:22:13;;;;;;;18.73;15.77;;;9.10;99.90;;;;;;5000762;28;20210;-74
2022/04/23 02:25:02;;;;;;;20.00;15.30;;;9.20;99.90;;;;;;4984622;28;20222;-74
2022/04/23 02:27:52;;;;;;;19.83;16.00;;;9.10;99.90;;;;;;4998350;28;20218;-74
2022/04/23 02:30:40;;;;;;;21.60;15.37;;;9.20;99.90;;;;;;4983549;28;20221;-74
2022/04/23 02:33:29;;;;;;;19.13;15.10;;;9.20;99.90;;;;;;4997451;28;20220;-73
2022/04/23 02:36:17;;;;;;;21.07;14.80;;;9.20;99.90;;;;;;5000690;28;20229;-72
2022/04/23 02:39:06;;;;;;;19.10;15.20;;;9.00;99.90;;;;;;4983883;28;20230;-74
2022/04/23 02:41:55;;;;;;;21.40;15.33;;;8.90;99.90;;;;;;5000349;28;20261;-76
2022/04/23 02:44:45;;;;;;;22.27;16.27;;;8.90;99.90;;;;;;4998521;28;20942;-73
2022/04/23 02:47:42;;;;;;;21.83;16.17;;;8.70;99.90;;;;;;4978785;28;21054;-73
2022/04/23 02:50:34;;;;;;;20.70;16.20;;;8.90;99.90;;;;;;4996927;28;20307;-74
2022/04/23 02:53:23;;;;;;;21.97;16.20;;;9.00;99.90;;;;;;5002532;28;20225;-75
2022/04/23 02:56:13;;;;;;;21.60;15.63;;;8.80;99.90;;;;;;5000245;28;20224;-75
2022/04/23 02:59:02;;;;;;;19.97;16.00;;;8.80;99.90;;;;;;4988351;28;20239;-74
2022/04/23 03:01:52;;;;;;;20.37;15.17;;;8.90;99.90;;;;;;5000349;28;20224;-75
2022/04/23 03:04:41;;;;;;;21.77;15.67;;;8.90;99.90;;;;;;4997832;28;20225;-75
2022/04/23 03:07:30;;;;;;;19.43;15.27;;;8.80;99.90;;;;;;4996426;28;20213;-75
2022/04/23 03:10:20;;;;;;;21.10;15.33;;;8.60;99.90;;;;;;4979415;28;20223;-74
2022/04/23 03:13:09;;;;;;;18.77;15.47;;;8.60;99.90;;;;;;4985636;28;20342;-74
2022/04/23 03:15:57;;;;;;;18.50;15.27;;;8.30;99.90;;;;;;4999575;28;20248;-74
2022/04/23 03:18:47;;;;;;;22.00;16.40;;;8.40;99.90;;;;;;4999507;28;20219;-74
2022/04/23 03:21:36;;;;;;;20.80;16.43;;;8.40;99.90;;;;;;4998955;28;20222;-75
2022/04/23 03:24:25;;;;;;;18.53;14.90;;;8.30;99.90;;;;;;4987252;28;20220;-74
2022/04/23 03:27:13;;;;;;;19.60;15.53;;;8.40;99.90;;;;;;4998964;28;20224;-75
2022/04/23 03:30:02;;;;;;;21.00;15.23;;;8.30;99.90;;;;;;4994283;28;20222;-74
2022/04/23 03:32:51;;;;;;;20.37;15.63;;;8.50;99.90;;;;;;4999232;28;20376;-74
2022/04/23 03:35:41;;;;;;;21.07;16.07;;;8.50;99.90;;;;;;4983712;28;20232;-74
2022/04/23 03:38:31;;;;;;;18.60;15.97;;;8.40;99.90;;;;;;4984880;28;20235;-74
2022/04/23 03:41:19;;;;;;;20.67;16.00;;;8.40;99.90;;;;;;4983574;28;20223;-74
2022/04/23 03:44:08;;;;;;;20.97;15.37;;;8.50;99.90;;;;;;4986309;28;20231;-75
2022/04/23 03:46:57;;;;;;;18.23;14.73;;;8.40;99.90;;;;;;5000292;28;20316;-75
2022/04/23 03:49:46;;;;;;;20.90;15.43;;;8.30;99.90;;;;;;4983501;28;20240;-74
2022/04/23 03:52:37;;;;;;;17.70;14.17;;;8.30;99.90;;;;;;4998307;28;20224;-74
2022/04/23 03:55:26;;;;;;;19.10;14.23;;;8.30;99.90;;;;;;4996839;28;20223;-74
2022/04/23 03:58:15;;;;;;;19.07;14.43;;;8.30;99.90;;;;;;5000287;28;20788;-75
2022/04/23 04:01:03;;;;;;;17.77;13.17;;;8.20;99.90;;;;;;4993617;28;20230;-74
2022/04/23 04:03:52;;;;;;;15.80;13.10;;;8.20;99.90;;;;;;5001928;28;20243;-75
2022/04/23 04:06:41;;;;;;;19.10;14.07;;;8.30;99.90;;;;;;5002536;28;20231;-75
2022/04/23 04:09:31;;;;;;;17.83;13.77;;;8.20;99.90;;;;;;4991542;28;20224;-75
2022/04/23 04:12:20;;;;;;;18.67;14.10;;;8.30;99.90;;;;;;4986430;28;20227;-74
2022/04/23 04:15:12;;;;;;;19.00;12.03;;;8.30;99.90;;;;;;4988159;28;20688;-75
2022/04/23 04:18:01;;;;;;;15.27;12.23;;;8.40;99.90;;;;;;5001702;28;20228;-75
2022/04/23 04:20:53;;;;;;;16.60;12.23;;;8.20;99.90;;;;;;4988081;28;20252;-74
2022/04/23 04:23:41;;;;;;;17.73;12.00;;;8.30;99.90;;;;;;4985431;28;20230;-74
2022/04/23 04:26:32;;;;;;;14.77;11.93;;;8.30;99.90;;;;;;4986706;28;20229;-74
2022/04/23 04:29:22;;;;;;;16.70;12.40;;;8.30;99.90;;;;;;4988086;28;20232;-74
2022/04/23 04:32:12;;;;;;;13.30;10.90;;;8.30;99.90;;;;;;5005781;28;20230;-74
2022/04/23 04:35:01;;;;;;;14.33;12.00;;;8.20;99.90;;;;;;5006218;28;20227;-74
2022/04/23 04:37:50;;;;;;;15.00;11.50;;;8.10;99.90;;;;;;5003297;28;20262;-74
2022/04/23 04:40:38;;;;;;;14.67;11.07;;;8.20;99.90;;;;;;5005994;28;20232;-74
2022/04/23 04:43:28;;;;;;;12.90;10.40;;;8.20;99.90;;;;;;5004177;28;20223;-74
2022/04/23 04:46:17;;;;;;;12.60;10.73;;;8.20;99.90;;;;;;4992856;28;20238;-74
2022/04/23 04:49:06;;;;;;;12.90;9.97;;;8.40;99.90;;;;;;5005386;28;20223;-74
2022/04/23 04:51:56;;;;;;;13.00;10.03;;;8.20;99.90;;;;;;4968124;28;20218;-74
2022/04/23 04:54:45;;;;;;;13.40;10.13;;;8.10;99.90;;;;;;4968692;28;20245;-74
2022/04/23 04:57:33;;;;;;;11.70;9.70;;;8.20;99.90;;;;;;4967853;28;20579;-75
2022/04/23 05:00:23;;;;;;;13.97;10.10;;;8.20;99.90;;;;;;4960637;28;20261;-74
2022/04/23 05:03:19;;;;;;;12.13;9.73;;;8.20;99.90;;;;;;4965524;28;20699;-74
2022/04/23 05:06:08;;;;;;;12.50;9.70;;;8.30;99.90;;;;;;4966261;28;20227;-74
2022/04/23 05:08:56;;;;;;;13.33;9.70;;;8.30;99.90;;;;;;4965662;28;20323;-74
2022/04/23 05:11:45;;;;;;;14.07;10.80;;;8.30;99.90;;;;;;4965624;28;20233;-75
2022/04/23 05:14:34;;;;;;;13.93;11.23;;;8.40;99.90;;;;;;4966135;28;20223;-75
2022/04/23 05:17:30;;;;;;;13.77;10.37;;;8.50;99.90;;;;;;4968475;28;20230;-75
2022/04/23 05:20:18;;;;;;;14.37;11.00;;;8.30;99.90;;;;;;4964447;28;20212;-76
2022/04/23 05:23:07;;;;;;;13.23;10.20;;;8.50;99.90;;;;;;4964794;28;20232;-74
2022/04/23 05:25:56;;;;;;;12.03;10.20;;;8.70;99.90;;;;;;4964800;28;20240;-74
2022/04/23 05:28:44;;;;;;;13.93;10.27;;;8.70;99.90;;;;;;4965190;28;20217;-74
2022/04/23 05:31:33;;;;;;;12.07;9.87;;;8.80;99.90;;;;;;4965703;28;20212;-75
2022/04/23 05:34:25;;;;;;;13.90;10.43;;;8.80;99.90;;;;;;4963709;28;20229;-74
2022/04/23 05:37:14;;;;;;;12.43;10.27;;;8.90;99.90;;;;;;4964987;28;20431;-74
2022/04/23 05:40:02;;;;;;;11.50;9.23;;;8.60;99.90;;;;;;4968642;28;20232;-73
2022/04/23 05:42:55;;;;;;;11.83;8.73;;;8.80;99.90;;;;;;4966218;28;20586;-75
2022/04/23 05:45:44;;;;;;;11.13;9.63;;;8.70;99.90;;;;;;4964796;28;20306;-75
2022/04/23 05:48:33;;;;;;;11.30;9.27;;;8.90;99.90;;;;;;4964529;28;20223;-75
2022/04/23 05:51:23;;;;;;;11.63;9.83;;;8.80;99.90;;;;;;4981109;28;20601;-75
2022/04/23 05:54:12;;;;;;;11.13;9.43;;;8.80;99.90;;;;;;4985121;28;20225;-75
2022/04/23 05:57:00;;;;;;;12.57;9.20;;;8.70;99.90;;;;;;4982268;28;20371;-74
2022/04/23 05:59:49;;;;;;;13.60;10.40;;;8.60;99.90;;;;;;4984169;28;20227;-74
2022/04/23 06:02:38;;;;;;;12.33;8.67;;;8.80;99.90;;;;;;4987473;28;20224;-75
2022/04/23 06:05:26;;;;;;;12.53;8.43;;;9.20;99.90;;;;;;4984189;28;20471;-74
2022/04/23 06:08:16;;;;;;;11.33;8.63;;;9.30;99.90;;;;;;4986620;28;20222;-76
2022/04/23 06:11:05;;;;;;;10.40;7.40;;;9.50;99.90;;;;;;4983885;28;20230;-75
2022/04/23 06:13:54;;;;;;;10.32;8.18;;;9.10;99.90;;;;;;4984265;28;20727;-75
2022/04/23 06:16:42;;;;;;;8.47;7.50;;;9.00;99.90;;;;;;4999466;28;20219;-75
2022/04/23 06:19:32;;;;;;;8.05;7.18;;;8.90;99.90;;;;;;4984279;28;20245;-75
2022/04/23 06:22:20;;;;;;;9.07;8.00;;;9.30;99.90;;;;;;4980242;28;20229;-75
2022/04/23 06:25:11;;;;;;;9.30;6.97;;;9.30;99.90;;;;;;4980457;28;20236;-75
2022/04/23 06:27:59;;;;;;;9.05;7.20;;;9.40;99.90;;;;;;4978831;28;20238;-75
2022/04/23 06:30:48;;;;;;;7.40;5.95;;;9.70;99.90;;;;;;4985400;28;20681;-74
2022/04/23 06:33:37;;;;;;;8.10;7.00;;;9.50;99.90;;;;;;4984674;28;20230;-74
2022/04/23 06:36:25;;;;;;;8.35;5.97;;;9.60;99.90;;;;;;4981826;28;20226;-74
2022/04/23 06:39:14;;;;;;;6.57;5.80;;;9.50;99.90;;;;;;4986887;28;20234;-74
2022/04/23 06:42:04;;;;;;;7.85;5.32;;;9.60;99.90;;;;;;4979946;28;20223;-74
2022/04/23 06:44:58;;;;;;;8.05;6.10;;;10.00;99.90;;;;;;4981698;28;20241;-74
2022/04/23 06:47:47;;;;;;;6.90;6.18;;;10.10;99.90;;;;;;4983113;28;20592;-74
2022/04/23 06:50:36;;;;;;;6.53;5.78;;;10.40;99.90;;;;;;4979239;28;20346;-74
2022/04/23 06:53:25;;;;;;;6.40;5.55;;;10.20;99.90;;;;;;4983388;28;20223;-75
2022/04/23 06:56:19;;;;;;;7.30;5.18;;;9.90;99.90;;;;;;4981284;28;20227;-76
2022/04/23 06:59:09;;;;;;;6.63;5.90;;;9.60;99.90;;;;;;4983486;28;20230;-74
2022/04/23 07:02:01;;;;;;;8.48;6.10;;;9.60;99.90;;;;;;4982848;28;20245;-75
2022/04/23 07:04:51;;;;;;;8.82;6.65;;;9.70;99.90;;;;;;4985768;28;20226;-74
2022/04/23 07:07:39;;;;;;;8.05;6.88;;;9.80;99.90;;;;;;4981368;28;20230;-75
2022/04/23 07:10:29;;;;;;;8.05;6.80;;;9.80;99.90;;;;;;4981312;28;20239;-75
2022/04/23 07:13:18;;;;;;;9.00;6.45;;;10.30;99.90;;;;;;4981904;28;20222;-75
2022/04/23 07:16:09;;;;;;;7.97;6.30;;;10.50;99.90;;;;;;4984177;28;20242;-75
2022/04/23 07:18:58;;;;;;;6.65;5.95;;;10.70;99.90;;;;;;4984269;28;20650;-74
2022/04/23 07:21:47;;;;;;;7.72;5.95;;;10.70;99.90;;;;;;4984627;28;20231;-75
2022/04/23 07:24:40;;;;;;;7.05;5.72;;;10.40;99.90;;;;;;4982449;28;20225;-74
2022/04/23 07:27:29;;;;;;;7.57;6.05;;;10.50;99.90;;;;;;4981029;28;20306;-76
2022/04/23 07:30:18;;;;;;;10.48;6.25;;;10.60;99.90;;;;;;4983198;28;20708;-76
2022/04/23 07:33:08;;;;;;;8.68;6.20;;;10.70;99.90;;;;;;4981765;28;20713;-75
2022/04/23 07:39:14;;;;;;;10.60;6.07;;;10.90;99.90;;;;;;4899516;29;20217;-74
2022/04/23 07:42:03;;;;;;;6.72;5.72;;;10.80;99.90;;;;;;4977474;28;20225;-74
2022/04/23 07:44:51;;;;;;;6.38;5.72;;;10.60;99.90;;;;;;4983697;28;20246;-75
2022/04/23 07:47:40;;;;;;;7.20;5.90;;;10.60;99.90;;;;;;4995709;28;20234;-75
2022/04/23 07:50:30;;;;;;;7.75;6.95;;;10.70;99.90;;;;;;4997015;28;20278;-73
2022/04/23 07:53:19;;;;;;;10.27;8.23;;;10.80;99.90;;;;;;5004089;28;20668;-74
2022/04/23 07:56:07;;;;;;;10.73;7.65;;;10.60;99.90;;;;;;4994033;28;20229;-74
2022/04/23 07:58:56;;;;;;;8.55;7.75;;;10.70;99.90;;;;;;5007473;28;20268;-73
2022/04/23 08:01:44;;;;;;;8.80;7.82;;;10.70;99.90;;;;;;5004906;28;20787;-74
2022/04/23 16:54:30;;;;;;;6.38;3.85;;;13.00;99.90;;;;;;5083205;27;20538;-73
2022/04/23 16:57:19;;;;;;;5.05;3.80;;;12.80;99.90;;;;;;5072426;28;20635;-76
2022/04/23 17:00:09;;;;;;;5.38;3.60;;;12.70;99.90;;;;;;5075374;28;20223;-74
2022/04/23 17:02:57;;;;;;;4.45;3.55;;;12.60;99.90;;;;;;5088784;28;20230;-76
2022/04/23 17:05:46;;;;;;;4.32;3.55;;;12.50;99.90;;;;;;5071114;28;20233;-76
2022/04/23 17:08:35;;;;;;;4.45;3.92;;;12.60;99.90;;;;;;5088143;28;20222;-76
2022/04/23 17:11:25;;;;;;;7.05;3.70;;;12.70;99.90;;;;;;5095948;28;20242;-75
2022/04/23 17:14:14;;;;;;;5.07;4.00;;;12.60;99.90;;;;;;5089431;28;20234;-81
2022/04/23 17:17:03;;;;;;;5.88;3.90;;;12.50;99.90;;;;;;5089088;28;20218;-75
2022/04/23 17:19:52;;;;;;;5.35;3.97;;;12.50;99.90;;;;;;5089693;28;20314;-75
2022/04/23 17:22:41;;;;;;;4.65;3.88;;;12.30;99.90;;;;;;5092874;28;20218;-75
2022/04/23 17:25:30;;;;;;;5.97;4.10;;;12.30;99.90;;;;;;5089888;28;20219;-76
2022/04/23 17:28:21;;;;;;;4.00;3.60;;;12.20;99.90;;;;;;5097882;28;20219;-81
2022/04/23 17:31:10;;;;;;;4.00;3.60;;;12.20;99.90;;;;;;5096747;28;20310;-85
2022/04/23 17:33:59;;;;;;;6.53;4.45;;;12.20;99.90;;;;;;5098998;28;20324;-82
2022/04/23 17:36:48;;;;;;;7.13;4.60;;;12.40;99.90;;;;;;5092425;28;20230;-83
2022/04/23 17:39:37;;;;;;;5.45;3.90;;;12.40;99.90;;;;;;5092841;28;20214;-82
2022/04/23 17:42:26;;;;;;;4.78;4.03;;;12.40;99.90;;;;;;5096813;28;20220;-85
2022/04/23 17:45:17;;;;;;;6.38;4.95;;;12.40;99.90;;;;;;5093613;28;20223;-82
2022/04/23 17:48:10;;;;;;;5.65;4.65;;;12.40;99.90;;;;;;5107981;27;20238;-85
2022/04/23 17:50:59;;;;;;;7.75;4.38;;;12.50;99.90;;;;;;5091938;28;20227;-82
2022/04/23 17:53:52;;;;;;;6.25;4.32;;;12.40;99.90;;;;;;5094860;28;20230;-84
2022/04/23 17:56:40;;;;;;;5.60;4.70;;;12.40;99.90;;;;;;5095892;28;20322;-82
2022/04/23 17:59:30;;;;;;;6.60;5.15;;;12.40;99.90;;;;;;5093731;28;20231;-82
2022/04/23 18:08:33;;;;;;;6.05;5.22;;;12.40;99.90;;;;;;5086880;28;20238;-87
2022/04/23 18:11:22;;;;;;;8.43;5.43;;;12.20;99.90;;;;;;5085791;28;20254;-81
2022/04/23 18:14:10;;;;;;;8.07;5.97;;;12.30;99.90;;;;;;5082406;28;20432;-87
2022/04/23 18:16:59;;;;;;;7.15;5.68;;;12.20;99.90;;;;;;5075599;28;20215;-76
2022/04/23 18:19:50;;;;;;;8.70;5.43;;;12.10;99.90;;;;;;5077227;28;20228;-75
2022/04/23 18:22:39;;;;;;;7.97;5.68;;;12.30;99.90;;;;;;5077004;28;20223;-76
2022/04/23 18:25:27;;;;;;;9.90;5.82;;;12.20;99.90;;;;;;5079346;28;20223;-75
2022/04/23 18:28:16;;;;;;;7.72;6.28;;;12.20;99.90;;;;;;5080423;28;20219;-76
2022/04/23 18:31:05;;;;;;;7.95;6.28;;;12.10;99.90;;;;;;5073783;28;20225;-75
2022/04/23 18:33:54;;;;;;;10.30;6.47;;;12.20;99.90;;;;;;5075844;28;20296;-75
2022/04/23 18:36:46;;;;;;;9.00;6.22;;;12.20;99.90;;;;;;5076408;28;20231;-75
2022/04/23 18:39:40;;;;;;;9.15;5.90;;;12.00;99.90;;;;;;5073311;28;20305;-76
2022/04/23 18:42:29;;;;;;;10.50;6.43;;;12.00;99.90;;;;;;5088455;28;20231;-75
2022/04/23 18:45:17;;;;;;;11.00;7.55;;;12.00;99.90;;;;;;5077252;28;20227;-77
2022/04/23 18:48:07;;;;;;;9.77;6.30;;;11.90;99.90;;;;;;5071477;28;20227;-75
2022/04/23 18:50:55;;;;;;;9.15;6.45;;;11.90;99.90;;;;;;5078967;28;20243;-74
2022/04/23 18:53:46;;;;;;;8.65;5.95;;;11.80;99.90;;;;;;5071647;28;20250;-75
2022/04/23 18:56:35;;;;;;;8.63;6.40;;;11.70;99.90;;;;;;5074236;28;20243;-72
2022/04/23 18:59:24;;;;;;;8.68;6.25;;;11.80;99.90;;;;;;5075600;28;20692;-74
2022/04/23 19:02:13;;;;;;;8.23;6.05;;;11.80;99.90;;;;;;5074104;28;20255;-74
2022/04/23 19:05:02;;;;;;;9.48;6.22;;;11.70;99.90;;;;;;5068961;28;20275;-75
2022/04/23 19:07:50;;;;;;;11.68;6.53;;;11.70;99.90;;;;;;5074266;28;20231;-74
2022/04/23 19:10:40;;;;;;;9.52;6.28;;;11.60;99.90;;;;;;5072725;28;20311;-74
2022/04/23 19:13:29;;;;;;;8.63;6.53;;;11.60;99.90;;;;;;5072879;28;20223;-73
2022/04/23 19:16:19;;;;;;;8.88;6.45;;;11.60;99.90;;;;;;5070488;28;20223;-76
2022/04/23 19:19:08;;;;;;;9.65;6.57;;;11.50;99.90;;;;;;5073172;28;20542;-76
2022/04/23 19:28:11;;;;;;;9.30;6.90;;;11.50;99.90;;;;;;5069599;28;20223;-75
2022/04/23 19:31:00;;;;;;;9.82;7.00;;;11.60;99.90;;;;;;5076157;28;20330;-75
2022/04/23 19:33:48;;;;;;;10.32;7.22;;;11.60;99.90;;;;;;5076021;28;20237;-75
2022/04/23 19:36:38;;;;;;;15.70;11.10;;;11.50;99.90;;;;;;5071326;28;20225;-75
2022/04/23 19:39:27;;;;;;;31.00;18.73;;;11.60;99.90;;;;;;5077824;28;20221;-76
2022/04/23 19:42:16;;;;;;;11.98;7.55;;;11.60;99.90;;;;;;5073946;28;20216;-76
2022/04/23 19:45:08;;;;;;;11.73;7.95;;;11.70;99.90;;;;;;5076463;28;20224;-75
2022/04/23 19:47:56;;;;;;;9.15;6.38;;;11.70;99.90;;;;;;5075460;28;20215;-75
2022/04/23 19:50:45;;;;;;;8.75;6.90;;;11.70;99.90;;;;;;5074809;28;20220;-76
2022/04/23 19:53:34;;;;;;;9.27;6.47;;;11.70;99.90;;;;;;5074277;28;20689;-76
2022/04/23 19:56:23;;;;;;;8.80;6.78;;;11.60;99.90;;;;;;5071995;28;20287;-75
2022/04/23 19:59:13;;;;;;;9.77;6.85;;;11.60;99.90;;;;;;5070902;28;20223;-75
2022/04/23 20:02:03;;;;;;;7.38;6.57;;;11.50;99.90;;;;;;5079807;28;20226;-76
2022/04/23 20:04:52;;;;;;;8.52;7.15;;;11.30;99.90;;;;;;5074933;28;20235;-75
2022/04/23 20:07:41;;;;;;;12.57;7.18;;;11.40;99.90;;;;;;5076565;28;20253;-77
2022/04/23 20:10:29;;;;;;;12.15;7.63;;;11.40;99.90;;;;;;5073478;28;20223;-75
2022/04/23 20:13:18;;;;;;;9.45;7.43;;;11.40;99.90;;;;;;5075675;28;20227;-75
2022/04/23 20:16:07;;;;;;;16.45;8.52;;;11.40;99.90;;;;;;5075948;28;20606;-76
2022/04/23 20:18:56;;;;;;;16.88;8.90;;;11.50;99.90;;;;;;5078123;28;20242;-75
2022/04/23 20:21:45;;;;;;;12.07;9.40;;;11.40;99.90;;;;;;5075293;28;20623;-75
2022/04/23 20:24:34;;;;;;;15.35;9.35;;;11.40;99.90;;;;;;5075811;28;20230;-75
2022/04/23 20:27:23;;;;;;;14.02;9.23;;;11.50;99.90;;;;;;5071501;28;20756;-75
2022/04/23 20:30:12;;;;;;;11.77;8.55;;;11.40;99.90;;;;;;5073097;28;20740;-77
2022/04/23 20:33:00;;;;;;;12.98;7.53;;;11.40;99.90;;;;;;5075141;28;20228;-75
2022/04/23 20:39:03;;;;;;;7.88;6.55;;;11.40;99.90;;;;;;5074042;28;20640;-76
2022/04/23 20:41:51;;;;;;;9.68;7.88;;;11.50;99.90;;;;;;5073177;28;20740;-75
2022/04/23 20:44:41;;;;;;;9.23;7.78;;;11.50;99.90;;;;;;5073674;28;20220;-76
2022/04/23 20:47:31;;;;;;;11.95;7.80;;;11.40;99.90;;;;;;5075866;28;20223;-75
2022/04/23 20:50:20;;;;;;;10.25;7.53;;;11.40;99.90;;;;;;5075692;28;20570;-75
2022/04/23 20:53:14;;;;;;;9.80;7.57;;;11.40;99.90;;;;;;5070983;28;20231;-74
2022/04/23 20:56:04;;;;;;;11.27;7.82;;;11.40;99.90;;;;;;5075207;28;20292;-74
2022/04/23 20:58:53;;;;;;;10.48;7.90;;;11.30;99.90;;;;;;5073433;28;20223;-75
2022/04/23 21:01:41;;;;;;;11.43;7.88;;;11.40;99.90;;;;;;5074870;28;21447;-75
2022/04/23 21:04:30;;;;;;;14.32;9.23;;;11.50;99.90;;;;;;5069518;28;20231;-73
2022/04/23 21:07:19;;;;;;;11.52;8.70;;;11.40;99.90;;;;;;5076487;28;20242;-74
2022/04/23 21:10:11;;;;;;;12.77;9.82;;;11.40;99.90;;;;;;5067133;28;20223;-76
2022/04/23 21:13:06;;;;;;;23.08;15.75;;;11.50;99.90;;;;;;5077247;28;20341;-73
2022/04/23 21:15:54;;;;;;;23.60;17.08;;;11.50;99.90;;;;;;5075676;28;20216;-74
2022/04/23 21:18:45;;;;;;;31.42;19.60;;;11.40;99.90;;;;;;5074123;28;20216;-73
2022/04/23 21:21:34;;;;;;;30.42;21.38;;;11.30;99.90;;;;;;5072797;28;20243;-74
2022/04/23 21:24:23;;;;;;;31.48;21.13;;;11.20;99.90;;;;;;5071477;28;20226;-74
2022/04/23 21:27:13;;;;;;;37.83;26.13;;;11.30;99.90;;;;;;5072402;28;20219;-74
2022/04/23 21:30:01;;;;;;;33.75;24.42;;;11.30;99.90;;;;;;5071506;28;20308;-74
2022/04/23 21:32:50;;;;;;;36.58;23.13;;;11.30;99.90;;;;;;5075365;28;20238;-74
2022/04/23 21:35:39;;;;;;;34.50;24.23;;;11.30;99.90;;;;;;5071773;28;20243;-74
2022/04/23 21:38:27;;;;;;;38.13;23.92;;;11.20;99.90;;;;;;5073748;28;20262;-74
2022/04/23 21:47:33;;;;;;;35.10;22.08;;;11.10;99.90;;;;;;5078149;28;20250;-74
2022/04/23 21:50:23;;;;;;;30.27;20.60;;;11.10;99.90;;;;;;5079806;28;20676;-74
2022/04/23 21:53:11;;;;;;;28.65;20.40;;;11.00;99.90;;;;;;5076309;28;20227;-75
2022/04/23 21:56:00;;;;;;;28.27;19.73;;;11.10;99.90;;;;;;5077027;28;20221;-75
2022/04/23 21:58:49;;;;;;;29.42;19.35;;;11.10;99.90;;;;;;5069193;28;20574;-74
2022/04/23 22:01:39;;;;;;;25.67;18.60;;;11.10;99.90;;;;;;5070591;28;20945;-74
2022/04/23 22:04:28;;;;;;;27.67;19.42;;;11.10;99.90;;;;;;5068090;28;20220;-76
2022/04/23 22:07:18;;;;;;;31.58;23.17;;;11.20;99.90;;;;;;5075365;28;20227;-75
2022/04/23 22:10:07;;;;;;;27.92;21.08;;;11.20;99.90;;;;;;5075430;28;20227;-74
2022/04/23 22:12:55;;;;;;;33.08;21.80;;;11.00;99.90;;;;;;5078108;28;20812;-74
2022/04/23 22:15:44;;;;;;;30.48;21.50;;;10.80;99.90;;;;;;5073452;28;20232;-74
2022/04/23 22:18:34;;;;;;;29.45;21.77;;;11.00;99.90;;;;;;5072709;28;20232;-75
2022/04/23 22:21:23;;;;;;;29.77;22.33;;;11.10;99.90;;;;;;5081313;28;20235;-74
2022/04/23 22:24:11;;;;;;;36.00;23.42;;;10.80;99.90;;;;;;5070361;28;20212;-75
2022/04/23 22:27:00;;;;;;;32.92;23.73;;;10.80;99.90;;;;;;5071098;28;20224;-74
2022/04/23 22:29:49;;;;;;;44.05;28.70;;;10.70;99.90;;;;;;5075092;28;20223;-74
2022/04/23 22:32:40;;;;;;;34.35;23.23;;;10.70;99.90;;;;;;5072455;28;20219;-74
2022/04/23 22:35:30;;;;;;;34.97;22.80;;;10.70;99.90;;;;;;5073723;28;20702;-75
2022/04/23 22:38:18;;;;;;;32.33;22.02;;;10.80;99.90;;;;;;5075242;28;20215;-74
2022/04/23 22:41:07;;;;;;;32.70;22.25;;;10.70;99.90;;;;;;5069869;28;20227;-73
2022/04/23 22:43:56;;;;;;;28.58;20.88;;;10.60;99.90;;;;;;5071936;28;20228;-73
2022/04/23 22:46:44;;;;;;;31.23;20.88;;;10.60;99.90;;;;;;5076553;28;20337;-74
2022/04/23 22:49:33;;;;;;;25.40;18.45;;;10.60;99.90;;;;;;5079736;28;20235;-73
2022/04/23 22:52:23;;;;;;;26.92;18.40;;;10.70;99.90;;;;;;5070528;28;20964;-73
2022/04/23 22:55:12;;;;;;;22.83;15.95;;;10.80;99.90;;;;;;5073429;28;20223;-75
2022/04/23 22:58:01;;;;;;;21.73;16.30;;;10.70;99.90;;;;;;5072259;28;20235;-74
2022/04/23 23:00:49;;;;;;;21.60;15.43;;;10.60;99.90;;;;;;5071685;28;20739;-74
2022/04/23 23:03:38;;;;;;;20.98;14.75;;;10.60;99.90;;;;;;5071493;28;20225;-73
2022/04/23 23:06:27;;;;;;;18.77;14.63;;;10.50;99.90;;;;;;5069564;28;20535;-74
2022/04/23 23:09:17;;;;;;;18.92;13.57;;;10.50;99.90;;;;;;5070783;28;20242;-73
2022/04/23 23:12:06;;;;;;;18.17;12.95;;;10.50;99.90;;;;;;5071215;28;20539;-74
2022/04/23 23:14:55;;;;;;;19.60;13.35;;;10.40;99.90;;;;;;5066258;28;20219;-74
2022/04/23 23:17:43;;;;;;;18.45;12.50;;;10.40;99.90;;;;;;5069887;28;20226;-74
2022/04/23 23:20:32;;;;;;;14.67;11.47;;;10.40;99.90;;;;;;5072450;28;20235;-74
2022/04/23 23:23:21;;;;;;;14.85;12.07;;;10.30;99.90;;;;;;5067658;28;20223;-73
2022/04/23 23:26:11;;;;;;;14.55;12.15;;;10.40;99.90;;;;;;5076882;28;20212;-74
2022/04/23 23:29:00;;;;;;;13.73;10.73;;;10.40;99.90;;;;;;5070319;28;20224;-74
2022/04/23 23:31:48;;;;;;;13.00;10.38;;;10.30;99.90;;;;;;5072933;28;20227;-74
2022/04/23 23:34:37;;;;;;;13.23;10.82;;;10.30;99.90;;;;;;5075622;28;20590;-75
2022/04/23 23:37:27;;;;;;;13.77;10.55;;;10.30;99.90;;;;;;5069045;28;20710;-75
2022/04/23 23:40:15;;;;;;;11.65;9.65;;;10.30;99.90;;;;;;5076916;28;20972;-75
2022/04/23 23:43:06;;;;;;;13.38;9.48;;;10.20;99.90;;;;;;5070944;28;20223;-74
2022/04/23 23:45:58;;;;;;;11.55;8.98;;;10.10;99.90;;;;;;5074754;28;20215;-73